Terminal Aerodrome Forecast
Issued by NWS Lubbock, TX

Home | Current Version | Previous Version | Text Only | Print | Product List | Glossary On
Versions: 1 2 3 4 5 6 7 8 9 10 11 12 13 14 15
000
FTUS44 KLUB 211917 AAA
TAFLBB
TAF AMD
KLBB 211917Z 2119/2218 25030G40KT P6SM SCT050 BKN100
     FM220000 26021G31KT P6SM BKN080
     FM220600 30026G36KT P6SM BKN040 OVC100=

USA.gov is the U.S. government's official web portal to all federal, state and local government web resources and services.